sensor_id;sensor_type;location;lat;lon;timestamp;pressure;altitude;pressure_sealevel;temperature;humidity
63665;BME280;49820;33.966;73.390;2023-04-08T00:02:05;79096.91;;;8.61;38.48
63665;BME280;49820;33.966;73.390;2023-04-08T00:05:09;79103.06;;;8.49;38.12
63665;BME280;49820;33.966;73.390;2023-04-08T00:07:37;79098.25;;;8.60;36.66
63665;BME280;49820;33.966;73.390;2023-04-08T00:10:41;79100.91;;;8.62;39.41
63665;BME280;49820;33.966;73.390;2023-04-08T00:13:45;79070.72;;;8.22;38.58
63665;BME280;49820;33.966;73.390;2023-04-08T00:16:49;79073.31;;;8.28;38.88
63665;BME280;49820;33.966;73.390;2023-04-08T00:19:53;79099.88;;;8.92;38.49
63665;BME280;49820;33.966;73.390;2023-04-08T00:22:24;79098.81;;;8.70;37.44
63665;BME280;49820;33.966;73.390;2023-04-08T00:25:28;79098.25;;;8.60;37.57
63665;BME280;49820;33.966;73.390;2023-04-08T00:28:32;79095.13;;;8.98;34.89
63665;BME280;49820;33.966;73.390;2023-04-08T00:31:36;79064.00;;;8.27;38.36
63665;BME280;49820;33.966;73.390;2023-04-08T00:34:22;79097.00;;;8.55;38.02
63665;BME280;49820;33.966;73.390;2023-04-08T00:37:26;79111.25;;;8.86;36.25
63665;BME280;49820;33.966;73.390;2023-04-08T00:40:13;79106.09;;;8.74;36.34
63665;BME280;49820;33.966;73.390;2023-04-08T00:43:17;79103.81;;;8.95;36.41
63665;BME280;49820;33.966;73.390;2023-04-08T00:46:23;79108.91;;;8.62;38.92
63665;BME280;49820;33.966;73.390;2023-04-08T00:48:54;79078.69;;;8.26;38.59
63665;BME280;49820;33.966;73.390;2023-04-08T00:51:23;79107.91;;;8.32;39.59
63665;BME280;49820;33.966;73.390;2023-04-08T00:54:10;79125.88;;;8.91;39.37
63665;BME280;49820;33.966;73.390;2023-04-08T00:57:14;79088.91;;;9.16;37.95
63665;BME280;49820;33.966;73.390;2023-04-08T00:59:44;79105.59;;;9.57;34.87
63665;BME280;49820;33.966;73.390;2023-04-08T01:05:15;79095.28;;;10.21;38.00
63665;BME280;49820;33.966;73.390;2023-04-08T01:08:24;79112.00;;;10.57;37.68
63665;BME280;49820;33.966;73.390;2023-04-08T01:10:59;79097.31;;;10.58;39.10
63665;BME280;49820;33.966;73.390;2023-04-08T01:49:15;79131.69;;;14.19;37.40
63665;BME280;49820;33.966;73.390;2023-04-08T01:52:34;79121.09;;;14.35;37.69
63665;BME280;49820;33.966;73.390;2023-04-08T01:55:05;79110.66;;;14.48;37.49
63665;BME280;49820;33.966;73.390;2023-04-08T01:58:14;79142.50;;;15.06;38.22
63665;BME280;49820;33.966;73.390;2023-04-08T02:01:09;79134.81;;;15.14;39.01
63665;BME280;49820;33.966;73.390;2023-04-08T02:26:41;79159.97;;;17.02;35.70
63665;BME280;49820;33.966;73.390;2023-04-08T02:29:31;79175.66;;;17.33;36.12
63665;BME280;49820;33.966;73.390;2023-04-08T02:32:20;79163.03;;;17.28;33.05
63665;BME280;49820;33.966;73.390;2023-04-08T02:35:26;79151.03;;;17.41;35.49
63665;BME280;49820;33.966;73.390;2023-04-08T02:38:12;79159.00;;;17.62;34.22
63665;BME280;49820;33.966;73.390;2023-04-08T02:41:16;79160.66;;;17.72;34.72
63665;BME280;49820;33.966;73.390;2023-04-08T02:43:45;79164.47;;;18.10;35.36
63665;BME280;49820;33.966;73.390;2023-04-08T02:46:49;79172.47;;;18.46;37.35
63665;BME280;49820;33.966;73.390;2023-04-08T02:49:54;79147.16;;;18.37;34.28
63665;BME280;49820;33.966;73.390;2023-04-08T02:52:40;79169.25;;;18.89;35.48
63665;BME280;49820;33.966;73.390;2023-04-08T02:55:46;79156.44;;;19.04;34.90
63665;BME280;49820;33.966;73.390;2023-04-08T02:58:49;79160.72;;;19.14;36.17
63665;BME280;49820;33.966;73.390;2023-04-08T03:01:19;79170.09;;;19.47;33.68
63665;BME280;49820;33.966;73.390;2023-04-08T03:04:23;79157.78;;;19.35;35.35
63665;BME280;49820;33.966;73.390;2023-04-08T03:07:27;79171.34;;;19.64;32.85
63665;BME280;49820;33.966;73.390;2023-04-08T03:10:30;79154.41;;;19.78;33.74
63665;BME280;49820;33.966;73.390;2023-04-08T03:12:59;79181.41;;;20.25;34.61
63665;BME280;49820;33.966;73.390;2023-04-08T03:15:28;79136.50;;;20.13;34.07
63665;BME280;49820;33.966;73.390;2023-04-08T03:18:15;79173.19;;;20.27;32.81
63665;BME280;49820;33.966;73.390;2023-04-08T03:21:19;79174.94;;;20.47;31.85
63665;BME280;49820;33.966;73.390;2023-04-08T03:24:23;79172.50;;;20.41;33.04
63665;BME280;49820;33.966;73.390;2023-04-08T03:26:52;79145.97;;;20.14;33.66
63665;BME280;49820;33.966;73.390;2023-04-08T03:29:21;79200.84;;;20.44;33.85
63665;BME280;49820;33.966;73.390;2023-04-08T03:32:07;79210.25;;;20.74;33.57
63665;BME280;49820;33.966;73.390;2023-04-08T03:34:55;79188.06;;;20.42;33.56
63665;BME280;49820;33.966;73.390;2023-04-08T03:37:42;79201.22;;;20.78;32.52
63665;BME280;49820;33.966;73.390;2023-04-08T03:40:45;79211.84;;;20.97;34.20
63665;BME280;49820;33.966;73.390;2023-04-08T03:43:14;79204.28;;;20.84;33.12
63665;BME280;49820;33.966;73.390;2023-04-08T03:45:43;79206.66;;;21.05;32.69
63665;BME280;49820;33.966;73.390;2023-04-08T03:48:13;79204.50;;;20.80;32.50
63665;BME280;49820;33.966;73.390;2023-04-08T03:51:17;79217.31;;;21.09;35.26
63665;BME280;49820;33.966;73.390;2023-04-08T03:53:47;79215.34;;;21.22;36.37
63665;BME280;49820;33.966;73.390;2023-04-08T03:56:51;79217.59;;;21.18;33.57
63665;BME280;49820;33.966;73.390;2023-04-08T03:59:55;79214.22;;;21.17;33.75
63665;BME280;49820;33.966;73.390;2023-04-08T04:02:59;79233.16;;;21.59;32.50
63665;BME280;49820;33.966;73.390;2023-04-08T04:06:03;79238.66;;;21.45;32.89
63665;BME280;49820;33.966;73.390;2023-04-08T04:09:06;79248.53;;;21.38;32.97
63665;BME280;49820;33.966;73.390;2023-04-08T04:11:36;79252.19;;;21.05;33.60
63665;BME280;49820;33.966;73.390;2023-04-08T04:14:40;79248.91;;;21.02;35.90
63665;BME280;49820;33.966;73.390;2023-04-08T04:17:43;79214.16;;;21.05;35.10
63665;BME280;49820;33.966;73.390;2023-04-08T04:20:50;79221.63;;;20.49;34.92
63665;BME280;49820;33.966;73.390;2023-04-08T04:23:36;79246.31;;;20.58;34.24
63665;BME280;49820;33.966;73.390;2023-04-08T04:26:40;79245.31;;;20.36;36.03
63665;BME280;49820;33.966;73.390;2023-04-08T04:29:30;79256.25;;;20.49;34.06
63665;BME280;49820;33.966;73.390;2023-04-08T04:32:34;79272.06;;;20.44;35.38
63665;BME280;49820;33.966;73.390;2023-04-08T04:35:38;79243.44;;;19.89;33.53
63665;BME280;49820;33.966;73.390;2023-04-08T04:38:43;79229.97;;;20.01;35.04
63665;BME280;49820;33.966;73.390;2023-04-08T04:41:47;79260.34;;;20.04;35.61
63665;BME280;49820;33.966;73.390;2023-04-08T04:44:51;79264.94;;;20.22;36.17
63665;BME280;49820;33.966;73.390;2023-04-08T04:47:22;79279.53;;;20.14;36.56
63665;BME280;49820;33.966;73.390;2023-04-08T04:49:51;79276.84;;;20.00;37.96
63665;BME280;49820;33.966;73.390;2023-04-08T04:52:38;79264.75;;;19.82;36.81
63665;BME280;49820;33.966;73.390;2023-04-08T04:55:42;79258.97;;;19.44;37.47
63665;BME280;49820;33.966;73.390;2023-04-08T04:58:45;79274.66;;;19.41;39.05
63665;BME280;49820;33.966;73.390;2023-04-08T05:01:49;79261.94;;;19.38;38.18
63665;BME280;49820;33.966;73.390;2023-04-08T05:04:53;79252.38;;;19.24;33.88
63665;BME280;49820;33.966;73.390;2023-04-08T05:07:23;79260.88;;;19.31;35.20
63665;BME280;49820;33.966;73.390;2023-04-08T05:10:27;79268.59;;;19.41;34.55
63665;BME280;49820;33.966;73.390;2023-04-08T05:12:55;79289.00;;;19.23;35.80
63665;BME280;49820;33.966;73.390;2023-04-08T05:15:59;79277.78;;;19.00;35.61
63665;BME280;49820;33.966;73.390;2023-04-08T05:18:45;79271.38;;;19.08;37.24
63665;BME280;49820;33.966;73.390;2023-04-08T05:21:30;79274.03;;;19.24;37.84
63665;BME280;49820;33.966;73.390;2023-04-08T05:24:34;79290.25;;;19.10;35.00
63665;BME280;49820;33.966;73.390;2023-04-08T05:27:03;79256.09;;;18.85;38.05
63665;BME280;49820;33.966;73.390;2023-04-08T05:30:07;79289.88;;;19.03;34.54
63665;BME280;49820;33.966;73.390;2023-04-08T05:33:12;79281.84;;;18.84;32.72
63665;BME280;49820;33.966;73.390;2023-04-08T05:35:41;79257.69;;;18.63;37.30
63665;BME280;49820;33.966;73.390;2023-04-08T05:38:44;79260.94;;;18.49;34.39
63665;BME280;49820;33.966;73.390;2023-04-08T05:41:13;79270.16;;;18.56;31.02
63665;BME280;49820;33.966;73.390;2023-04-08T05:44:17;79287.00;;;18.90;32.34
63665;BME280;49820;33.966;73.390;2023-04-08T05:47:21;79277.72;;;19.33;33.41
63665;BME280;49820;33.966;73.390;2023-04-08T05:49:50;79282.56;;;19.31;31.79
63665;BME280;49820;33.966;73.390;2023-04-08T05:52:54;79292.44;;;19.99;31.60
63665;BME280;49820;33.966;73.390;2023-04-08T05:55:23;79286.38;;;19.99;28.67
63665;BME280;49820;33.966;73.390;2023-04-08T05:58:27;79275.63;;;20.26;28.95
63665;BME280;49820;33.966;73.390;2023-04-08T06:01:14;79293.19;;;20.71;27.87
63665;BME280;49820;33.966;73.390;2023-04-08T06:04:18;79300.19;;;21.38;30.11
63665;BME280;49820;33.966;73.390;2023-04-08T06:06:47;79291.63;;;22.26;29.71
63665;BME280;49820;33.966;73.390;2023-04-08T06:09:51;79292.81;;;22.54;29.08
63665;BME280;49820;33.966;73.390;2023-04-08T06:12:54;79285.03;;;23.22;32.42
63665;BME280;49820;33.966;73.390;2023-04-08T06:16:09;79282.47;;;23.07;26.20
63665;BME280;49820;33.966;73.390;2023-04-08T06:19:14;79270.34;;;24.12;29.18
63665;BME280;49820;33.966;73.390;2023-04-08T06:21:43;79281.47;;;24.08;26.73
63665;BME280;49820;33.966;73.390;2023-04-08T06:24:12;79256.63;;;24.59;29.52
63665;BME280;49820;33.966;73.390;2023-04-08T06:26:59;79280.44;;;24.94;29.80
63665;BME280;49820;33.966;73.390;2023-04-08T06:30:02;79269.56;;;24.71;27.45
63665;BME280;49820;33.966;73.390;2023-04-08T06:33:06;79269.84;;;25.43;28.52
63665;BME280;49820;33.966;73.390;2023-04-08T06:36:10;79261.91;;;25.50;28.51
63665;BME280;49820;33.966;73.390;2023-04-08T06:38:40;79254.09;;;25.44;26.95
63665;BME280;49820;33.966;73.390;2023-04-08T06:41:44;79265.47;;;25.59;26.49
63665;BME280;49820;33.966;73.390;2023-04-08T06:44:47;79263.31;;;26.13;26.84
63665;BME280;49820;33.966;73.390;2023-04-08T06:47:51;79234.06;;;25.69;27.68
63665;BME280;49820;33.966;73.390;2023-04-08T06:50:20;79269.47;;;25.28;27.92
63665;BME280;49820;33.966;73.390;2023-04-08T06:53:24;79267.50;;;25.48;27.71
63665;BME280;49820;33.966;73.390;2023-04-08T06:56:29;79260.75;;;25.58;29.29
63665;BME280;49820;33.966;73.390;2023-04-08T06:59:16;79250.22;;;24.86;27.68
63665;BME280;49820;33.966;73.390;2023-04-08T07:02:20;79261.94;;;25.71;27.94
63665;BME280;49820;33.966;73.390;2023-04-08T07:05:08;79258.00;;;25.47;27.37
63665;BME280;49820;33.966;73.390;2023-04-08T07:08:12;79256.59;;;25.69;25.06
63665;BME280;49820;33.966;73.390;2023-04-08T07:10:59;79259.13;;;26.35;34.00
63665;BME280;49820;33.966;73.390;2023-04-08T07:14:02;79261.78;;;26.27;26.32
63665;BME280;49820;33.966;73.390;2023-04-08T07:17:06;79259.41;;;26.31;28.00
63665;BME280;49820;33.966;73.390;2023-04-08T07:20:11;79255.47;;;26.49;28.73
63665;BME280;49820;33.966;73.390;2023-04-08T07:22:59;79238.47;;;26.87;27.93
63665;BME280;49820;33.966;73.390;2023-04-08T07:26:03;79263.28;;;27.45;29.17
63665;BME280;49820;33.966;73.390;2023-04-08T07:29:07;79238.38;;;27.39;28.37
63665;BME280;49820;33.966;73.390;2023-04-08T07:31:37;79243.13;;;26.70;26.13
63665;BME280;49820;33.966;73.390;2023-04-08T07:34:41;79254.06;;;27.59;26.96
63665;BME280;49820;33.966;73.390;2023-04-08T07:37:10;79260.25;;;27.30;32.19
63665;BME280;49820;33.966;73.390;2023-04-08T07:40:14;79253.41;;;27.40;28.02
63665;BME280;49820;33.966;73.390;2023-04-08T07:43:01;79242.16;;;27.63;28.10
63665;BME280;49820;33.966;73.390;2023-04-08T07:46:05;79249.13;;;28.09;24.73
63665;BME280;49820;33.966;73.390;2023-04-08T07:49:09;79246.19;;;28.02;28.88
63665;BME280;49820;33.966;73.390;2023-04-08T07:52:12;79257.69;;;28.05;28.97
63665;BME280;49820;33.966;73.390;2023-04-08T07:54:41;79263.19;;;27.86;21.48
63665;BME280;49820;33.966;73.390;2023-04-08T07:57:45;79250.00;;;27.39;26.12
63665;BME280;49820;33.966;73.390;2023-04-08T08:00:49;79255.72;;;27.46;25.35
63665;BME280;49820;33.966;73.390;2023-04-08T08:03:53;79255.47;;;27.20;20.64
63665;BME280;49820;33.966;73.390;2023-04-08T08:06:58;79258.28;;;27.97;24.54
63665;BME280;49820;33.966;73.390;2023-04-08T08:10:01;79241.00;;;28.18;22.75
63665;BME280;49820;33.966;73.390;2023-04-08T08:12:48;79247.84;;;28.27;23.62
63665;BME280;49820;33.966;73.390;2023-04-08T08:15:35;79262.19;;;24.80;25.49
63665;BME280;49820;33.966;73.390;2023-04-08T08:18:40;79244.56;;;22.91;20.17
63665;BME280;49820;33.966;73.390;2023-04-08T08:21:27;79262.59;;;21.95;24.14
63665;BME280;49820;33.966;73.390;2023-04-08T08:24:31;79258.41;;;22.74;24.96
63665;BME280;49820;33.966;73.390;2023-04-08T08:27:18;79227.34;;;21.80;26.93
63665;BME280;49820;33.966;73.390;2023-04-08T08:30:21;79227.56;;;23.85;28.69
63665;BME280;49820;33.966;73.390;2023-04-08T08:32:51;79225.28;;;22.06;28.89
63665;BME280;49820;33.966;73.390;2023-04-08T08:35:55;79253.41;;;21.08;27.02
63665;BME280;49820;33.966;73.390;2023-04-08T08:39:00;79229.53;;;22.16;31.47
63665;BME280;49820;33.966;73.390;2023-04-08T08:41:33;79241.78;;;21.77;24.83
63665;BME280;49820;33.966;73.390;2023-04-08T08:44:39;79217.41;;;21.62;28.65
63665;BME280;49820;33.966;73.390;2023-04-08T08:47:25;79238.16;;;21.55;31.93
63665;BME280;49820;33.966;73.390;2023-04-08T08:50:29;79226.72;;;22.18;31.94
63665;BME280;49820;33.966;73.390;2023-04-08T08:52:58;79225.31;;;23.54;27.51
63665;BME280;49820;33.966;73.390;2023-04-08T08:55:43;79228.50;;;21.70;35.68
63665;BME280;49820;33.966;73.390;2023-04-08T08:58:48;79229.41;;;22.81;30.87
63665;BME280;49820;33.966;73.390;2023-04-08T09:01:37;79234.50;;;23.72;28.42
63665;BME280;49820;33.966;73.390;2023-04-08T09:04:55;79231.78;;;23.00;27.72
63665;BME280;49820;33.966;73.390;2023-04-08T09:07:26;79236.38;;;23.39;28.23
63665;BME280;49820;33.966;73.390;2023-04-08T09:10:31;79218.69;;;23.74;28.76
63665;BME280;49820;33.966;73.390;2023-04-08T09:13:00;79200.50;;;21.47;28.85
63665;BME280;49820;33.966;73.390;2023-04-08T09:19:10;79233.91;;;19.90;31.18
63665;BME280;49820;33.966;73.390;2023-04-08T09:22:14;79201.34;;;20.34;29.86
63665;BME280;49820;33.966;73.390;2023-04-08T09:25:27;79229.69;;;20.79;32.55
63665;BME280;49820;33.966;73.390;2023-04-08T09:27:56;79206.91;;;22.06;28.34
63665;BME280;49820;33.966;73.390;2023-04-08T09:31:00;79205.25;;;23.11;33.98
63665;BME280;49820;33.966;73.390;2023-04-08T09:34:14;79210.03;;;23.46;27.88
63665;BME280;49820;33.966;73.390;2023-04-08T09:36:51;79215.34;;;23.61;27.32
63665;BME280;49820;33.966;73.390;2023-04-08T09:39:55;79206.56;;;23.12;27.10
63665;BME280;49820;33.966;73.390;2023-04-08T09:43:04;79198.03;;;23.54;29.36
63665;BME280;49820;33.966;73.390;2023-04-08T09:45:35;79187.81;;;23.88;26.83
63665;BME280;49820;33.966;73.390;2023-04-08T09:48:26;79214.81;;;24.05;29.95
63665;BME280;49820;33.966;73.390;2023-04-08T09:58:57;79193.22;;;23.54;29.81
63665;BME280;49820;33.966;73.390;2023-04-08T10:02:27;79189.75;;;23.56;32.58
63665;BME280;49820;33.966;73.390;2023-04-08T10:05:16;79193.13;;;23.56;28.82
63665;BME280;49820;33.966;73.390;2023-04-08T10:07:46;79180.97;;;23.66;32.48
63665;BME280;49820;33.966;73.390;2023-04-08T10:10:16;79142.03;;;23.78;27.73
63665;BME280;49820;33.966;73.390;2023-04-08T10:12:45;79166.53;;;23.44;29.26
63665;BME280;49820;33.966;73.390;2023-04-08T10:15:34;79181.09;;;23.28;32.03
63665;BME280;49820;33.966;73.390;2023-04-08T10:18:39;79179.38;;;23.23;30.65
63665;BME280;49820;33.966;73.390;2023-04-08T10:21:32;79185.22;;;23.40;32.36
63665;BME280;49820;33.966;73.390;2023-04-08T10:24:37;79170.16;;;23.17;30.53
63665;BME280;49820;33.966;73.390;2023-04-08T10:27:38;79178.94;;;23.54;28.32
63665;BME280;49820;33.966;73.390;2023-04-08T10:33:22;79180.25;;;23.55;29.27
63665;BME280;49820;33.966;73.390;2023-04-08T10:36:27;79162.19;;;23.13;28.67
63665;BME280;49820;33.966;73.390;2023-04-08T10:39:15;79158.53;;;22.58;27.47
63665;BME280;49820;33.966;73.390;2023-04-08T10:42:19;79171.88;;;22.87;30.13
63665;BME280;49820;33.966;73.390;2023-04-08T10:45:15;79164.69;;;23.17;29.01
63665;BME280;49820;33.966;73.390;2023-04-08T10:48:22;79161.31;;;22.20;28.26
63665;BME280;49820;33.966;73.390;2023-04-08T10:50:58;79146.72;;;22.00;30.48
63665;BME280;49820;33.966;73.390;2023-04-08T10:54:12;79150.09;;;22.00;29.42
63665;BME280;49820;33.966;73.390;2023-04-08T10:56:57;79153.88;;;21.93;31.79
63665;BME280;49820;33.966;73.390;2023-04-08T11:00:02;79141.81;;;21.64;28.81
63665;BME280;49820;33.966;73.390;2023-04-08T11:03:09;79103.84;;;21.37;31.72
63665;BME280;49820;33.966;73.390;2023-04-08T11:06:14;79160.09;;;22.29;29.21
63665;BME280;49820;33.966;73.390;2023-04-08T11:09:18;79154.59;;;21.41;29.55
63665;BME280;49820;33.966;73.390;2023-04-08T11:12:22;79121.03;;;21.46;29.30
63665;BME280;49820;33.966;73.390;2023-04-08T11:15:08;79145.63;;;21.69;31.86
63665;BME280;49820;33.966;73.390;2023-04-08T11:18:13;79150.06;;;21.62;29.35
63665;BME280;49820;33.966;73.390;2023-04-08T11:21:17;79161.22;;;21.31;28.28
63665;BME280;49820;33.966;73.390;2023-04-08T11:24:21;79157.09;;;20.65;29.83
63665;BME280;49820;33.966;73.390;2023-04-08T11:27:08;79149.31;;;20.84;32.52
63665;BME280;49820;33.966;73.390;2023-04-08T11:29:55;79147.72;;;20.89;29.16
63665;BME280;49820;33.966;73.390;2023-04-08T11:33:00;79137.09;;;20.98;30.76
63665;BME280;49820;33.966;73.390;2023-04-08T11:36:04;79140.81;;;21.05;30.49
63665;BME280;49820;33.966;73.390;2023-04-08T11:39:10;79144.97;;;21.16;32.50
63665;BME280;49820;33.966;73.390;2023-04-08T11:42:31;79150.03;;;20.97;29.68
63665;BME280;49820;33.966;73.390;2023-04-08T11:45:00;79154.31;;;20.79;27.73
63665;BME280;49820;33.966;73.390;2023-04-08T11:47:48;79161.47;;;20.72;29.97
63665;BME280;49820;33.966;73.390;2023-04-08T11:51:03;79146.72;;;20.82;29.98
63665;BME280;49820;33.966;73.390;2023-04-08T11:54:25;79161.31;;;20.62;30.05
63665;BME280;49820;33.966;73.390;2023-04-08T11:57:30;79147.28;;;20.15;28.47
63665;BME280;49820;33.966;73.390;2023-04-08T12:00:00;79163.66;;;19.98;30.93
63665;BME280;49820;33.966;73.390;2023-04-08T12:02:36;79157.97;;;19.46;31.87
63665;BME280;49820;33.966;73.390;2023-04-08T12:05:23;79122.50;;;18.91;31.26
63665;BME280;49820;33.966;73.390;2023-04-08T12:08:27;79149.91;;;18.68;32.71
63665;BME280;49820;33.966;73.390;2023-04-08T12:10:57;79147.59;;;18.26;32.46
63665;BME280;49820;33.966;73.390;2023-04-08T12:14:00;79144.03;;;17.65;33.93
63665;BME280;49820;33.966;73.390;2023-04-08T12:16:29;79152.63;;;17.70;33.63
63665;BME280;49820;33.966;73.390;2023-04-08T12:18:58;79136.19;;;17.24;32.98
63665;BME280;49820;33.966;73.390;2023-04-08T12:21:27;79056.63;;;16.33;35.78
63665;BME280;49820;33.966;73.390;2023-04-08T12:23:56;79123.72;;;16.78;33.39
63665;BME280;49820;33.966;73.390;2023-04-08T12:27:00;79147.97;;;16.62;34.10
63665;BME280;49820;33.966;73.390;2023-04-08T12:29:31;79152.63;;;16.63;34.08
63665;BME280;49820;33.966;73.390;2023-04-08T12:32:35;79140.50;;;16.25;35.70
63665;BME280;49820;33.966;73.390;2023-04-08T12:35:04;79153.63;;;15.77;36.13
63665;BME280;49820;33.966;73.390;2023-04-08T12:38:08;79158.16;;;15.82;35.17
63665;BME280;49820;33.966;73.390;2023-04-08T12:41:12;79137.25;;;15.83;36.41
63665;BME280;49820;33.966;73.390;2023-04-08T12:44:16;79138.78;;;15.78;36.28
63665;BME280;49820;33.966;73.390;2023-04-08T12:47:20;79140.28;;;15.54;38.73
63665;BME280;49820;33.966;73.390;2023-04-08T12:49:52;79154.25;;;15.38;36.73
63665;BME280;49820;33.966;73.390;2023-04-08T12:52:56;79157.97;;;15.26;35.45
63665;BME280;49820;33.966;73.390;2023-04-08T12:56:00;79069.94;;;14.39;36.69
63665;BME280;49820;33.966;73.390;2023-04-08T12:59:03;79167.22;;;15.10;38.80
63665;BME280;49820;33.966;73.390;2023-04-08T13:02:07;79132.22;;;14.46;39.36
63665;BME280;49820;33.966;73.390;2023-04-08T13:04:36;79126.19;;;14.23;40.71
63665;BME280;49820;33.966;73.390;2023-04-08T13:07:40;79152.16;;;14.30;41.63
63665;BME280;49820;33.966;73.390;2023-04-08T13:10:44;79153.47;;;14.31;42.41
63665;BME280;49820;33.966;73.390;2023-04-08T13:13:48;79177.66;;;14.31;43.18
63665;BME280;49820;33.966;73.390;2023-04-08T13:16:52;79157.84;;;13.95;44.38
63665;BME280;49820;33.966;73.390;2023-04-08T13:19:56;79140.50;;;13.92;43.60
63665;BME280;49820;33.966;73.390;2023-04-08T13:23:00;79171.19;;;13.99;45.04
63665;BME280;49820;33.966;73.390;2023-04-08T13:26:04;79140.59;;;13.63;45.49
63665;BME280;49820;33.966;73.390;2023-04-08T13:29:08;79154.16;;;13.59;45.86
63665;BME280;49820;33.966;73.390;2023-04-08T13:32:13;79160.97;;;13.54;46.51
63665;BME280;49820;33.966;73.390;2023-04-08T13:34:42;79139.59;;;13.25;46.46
63665;BME280;49820;33.966;73.390;2023-04-08T13:37:45;79172.13;;;13.38;46.71
63665;BME280;49820;33.966;73.390;2023-04-08T13:40:49;79163.09;;;13.25;46.85
63665;BME280;49820;33.966;73.390;2023-04-08T13:43:53;79154.06;;;13.10;47.22
63665;BME280;49820;33.966;73.390;2023-04-08T13:46:57;79176.84;;;13.11;47.43
63665;BME280;49820;33.966;73.390;2023-04-08T13:50:01;79143.00;;;12.70;48.07
63665;BME280;49820;33.966;73.390;2023-04-08T13:53:05;79171.38;;;12.88;48.07
63665;BME280;49820;33.966;73.390;2023-04-08T13:56:09;79179.78;;;13.00;48.15
63665;BME280;49820;33.966;73.390;2023-04-08T13:58:38;79162.63;;;12.89;47.64
63665;BME280;49820;33.966;73.390;2023-04-08T14:01:42;79182.56;;;12.96;48.03
63665;BME280;49820;33.966;73.390;2023-04-08T14:04:29;79163.53;;;12.80;48.28
63665;BME280;49820;33.966;73.390;2023-04-08T14:07:16;79185.13;;;12.74;48.89
63665;BME280;49820;33.966;73.390;2023-04-08T14:10:21;79190.59;;;12.70;49.04
63665;BME280;49820;33.966;73.390;2023-04-08T14:12:49;79183.00;;;12.49;48.79
63665;BME280;49820;33.966;73.390;2023-04-08T14:15:53;79186.97;;;12.52;48.62
63665;BME280;49820;33.966;73.390;2023-04-08T14:18:25;79171.28;;;12.34;49.18
63665;BME280;49820;33.966;73.390;2023-04-08T14:21:30;79194.81;;;12.60;48.70
63665;BME280;49820;33.966;73.390;2023-04-08T14:23:59;79188.94;;;12.54;48.79
63665;BME280;49820;33.966;73.390;2023-04-08T14:27:03;79196.22;;;12.57;48.72
63665;BME280;49820;33.966;73.390;2023-04-08T14:30:07;79198.16;;;12.61;48.98
63665;BME280;49820;33.966;73.390;2023-04-08T14:33:12;79163.41;;;12.28;48.72
63665;BME280;49820;33.966;73.390;2023-04-08T14:36:15;79160.63;;;12.32;47.64
63665;BME280;49820;33.966;73.390;2023-04-08T14:38:44;79194.25;;;12.56;48.26
63665;BME280;49820;33.966;73.390;2023-04-08T14:41:48;79211.44;;;12.65;47.28
63665;BME280;49820;33.966;73.390;2023-04-08T14:44:52;79200.28;;;12.56;47.60
63665;BME280;49820;33.966;73.390;2023-04-08T14:47:55;79192.59;;;12.40;48.43
63665;BME280;49820;33.966;73.390;2023-04-08T14:50:44;79207.31;;;12.41;49.14
63665;BME280;49820;33.966;73.390;2023-04-08T14:53:47;79192.78;;;12.32;47.26
63665;BME280;49820;33.966;73.390;2023-04-08T14:56:51;79194.38;;;12.21;48.37
63665;BME280;49820;33.966;73.390;2023-04-08T14:59:56;79218.38;;;12.25;47.81
63665;BME280;49820;33.966;73.390;2023-04-08T15:03:01;79224.06;;;12.09;48.26
63665;BME280;49820;33.966;73.390;2023-04-08T15:06:05;79219.06;;;11.93;46.38
63665;BME280;49820;33.966;73.390;2023-04-08T15:08:34;79210.53;;;11.84;46.32
63665;BME280;49820;33.966;73.390;2023-04-08T15:11:38;79219.66;;;11.62;47.73
63665;BME280;49820;33.966;73.390;2023-04-08T15:14:25;79210.78;;;11.37;48.61
63665;BME280;49820;33.966;73.390;2023-04-08T15:17:29;79235.63;;;11.31;49.00
63665;BME280;49820;33.966;73.390;2023-04-08T15:19:58;79195.53;;;10.94;48.99
63665;BME280;49820;33.966;73.390;2023-04-08T15:23:02;79221.03;;;11.24;48.81
63665;BME280;49820;33.966;73.390;2023-04-08T15:25:49;79234.38;;;11.26;49.18
63665;BME280;49820;33.966;73.390;2023-04-08T15:28:34;79219.06;;;11.23;49.33
63665;BME280;49820;33.966;73.390;2023-04-08T15:31:40;79254.19;;;11.39;49.92
63665;BME280;49820;33.966;73.390;2023-04-08T15:34:09;79219.16;;;11.19;48.40
63665;BME280;49820;33.966;73.390;2023-04-08T15:37:13;79239.78;;;11.22;49.69
63665;BME280;49820;33.966;73.390;2023-04-08T15:40:00;79245.09;;;11.26;48.99
63665;BME280;49820;33.966;73.390;2023-04-08T15:43:04;79239.78;;;11.22;49.02
63665;BME280;49820;33.966;73.390;2023-04-08T15:46:08;79255.13;;;11.26;48.86
63665;BME280;49820;33.966;73.390;2023-04-08T15:48:36;79230.06;;;11.06;49.61
63665;BME280;49820;33.966;73.390;2023-04-08T15:51:40;79262.94;;;11.36;49.98
63665;BME280;49820;33.966;73.390;2023-04-08T15:54:46;79241.41;;;11.07;50.20
63665;BME280;49820;33.966;73.390;2023-04-08T15:57:50;79252.25;;;10.99;49.91
63665;BME280;49820;33.966;73.390;2023-04-08T16:00:56;79252.97;;;10.95;50.42
63665;BME280;49820;33.966;73.390;2023-04-08T16:03:25;79243.56;;;10.98;50.03
63665;BME280;49820;33.966;73.390;2023-04-08T16:06:28;79254.19;;;11.02;49.96
63665;BME280;49820;33.966;73.390;2023-04-08T16:08:58;79263.56;;;11.01;50.44
63665;BME280;49820;33.966;73.390;2023-04-08T16:12:02;79259.09;;;10.88;51.78
63665;BME280;49820;33.966;73.390;2023-04-08T16:14:31;79264.44;;;10.88;52.04
63665;BME280;49820;33.966;73.390;2023-04-08T16:17:35;79278.94;;;11.01;52.46
63665;BME280;49820;33.966;73.390;2023-04-08T16:20:39;79271.06;;;10.93;52.14
63665;BME280;49820;33.966;73.390;2023-04-08T16:23:26;79273.06;;;10.92;52.41